sensor_id;sensor_type;location;lat;lon;timestamp;pressure;altitude;pressure_sealevel;temperature;humidity
28310;BME280;15571;50.974;13.936;2023-03-03T00:00:10;100671.19;;;-0.62;100.00
28310;BME280;15571;50.974;13.936;2023-03-03T00:03:15;100665.06;;;-0.64;100.00
28310;BME280;15571;50.974;13.936;2023-03-03T00:06:20;100662.44;;;-0.66;100.00
28310;BME280;15571;50.974;13.936;2023-03-03T00:09:23;100664.72;;;-0.72;100.00
28310;BME280;15571;50.974;13.936;2023-03-03T00:12:28;100660.47;;;-0.71;100.00
28310;BME280;15571;50.974;13.936;2023-03-03T00:15:30;100667.28;;;-0.72;100.00
28310;BME280;15571;50.974;13.936;2023-03-03T00:18:32;100672.50;;;-0.70;100.00
28310;BME280;15571;50.974;13.936;2023-03-03T00:21:39;100674.28;;;-0.69;100.00
28310;BME280;15571;50.974;13.936;2023-03-03T00:24:41;100669.84;;;-0.72;100.00
28310;BME280;15571;50.974;13.936;2023-03-03T00:27:44;100669.72;;;-0.75;100.00
28310;BME280;15571;50.974;13.936;2023-03-03T00:30:46;100675.72;;;-0.74;100.00
28310;BME280;15571;50.974;13.936;2023-03-03T00:33:49;100682.47;;;-0.76;100.00
28310;BME280;15571;50.974;13.936;2023-03-03T00:36:55;100671.28;;;-0.79;100.00
28310;BME280;15571;50.974;13.936;2023-03-03T00:40:10;100673.97;;;-0.75;100.00
28310;BME280;15571;50.974;13.936;2023-03-03T00:43:18;100668.97;;;-0.72;100.00
28310;BME280;15571;50.974;13.936;2023-03-03T00:46:21;100681.16;;;-0.68;100.00
28310;BME280;15571;50.974;13.936;2023-03-03T00:49:25;100682.00;;;-0.69;100.00
28310;BME280;15571;50.974;13.936;2023-03-03T00:52:27;100681.16;;;-0.68;100.00
28310;BME280;15571;50.974;13.936;2023-03-03T00:55:29;100682.13;;;-0.66;100.00
28310;BME280;15571;50.974;13.936;2023-03-03T00:58:34;100681.16;;;-0.68;100.00
28310;BME280;15571;50.974;13.936;2023-03-03T01:01:36;100679.53;;;-0.66;100.00
28310;BME280;15571;50.974;13.936;2023-03-03T01:04:38;100685.00;;;-0.60;100.00
28310;BME280;15571;50.974;13.936;2023-03-03T01:07:40;100681.91;;;-0.53;100.00
28310;BME280;15571;50.974;13.936;2023-03-03T01:10:43;100680.50;;;-0.46;100.00
28310;BME280;15571;50.974;13.936;2023-03-03T01:13:48;100673.84;;;-0.41;100.00
28310;BME280;15571;50.974;13.936;2023-03-03T01:16:51;100680.13;;;-0.36;100.00
28310;BME280;15571;50.974;13.936;2023-03-03T01:19:55;100694.00;;;-0.32;100.00
28310;BME280;15571;50.974;13.936;2023-03-03T01:22:57;100692.22;;;-0.33;100.00
28310;BME280;15571;50.974;13.936;2023-03-03T01:25:59;100685.47;;;-0.31;100.00
28310;BME280;15571;50.974;13.936;2023-03-03T01:29:05;100686.28;;;-0.32;100.00
28310;BME280;15571;50.974;13.936;2023-03-03T01:32:07;100690.63;;;-0.31;100.00
28310;BME280;15571;50.974;13.936;2023-03-03T01:35:09;100686.41;;;-0.29;100.00
28310;BME280;15571;50.974;13.936;2023-03-03T01:38:11;100683.97;;;-0.26;100.00
28310;BME280;15571;50.974;13.936;2023-03-03T01:41:13;100694.25;;;-0.26;100.00
28310;BME280;15571;50.974;13.936;2023-03-03T01:44:16;100688.91;;;-0.30;100.00
28310;BME280;15571;50.974;13.936;2023-03-03T01:47:19;100693.03;;;-0.34;100.00
28310;BME280;15571;50.974;13.936;2023-03-03T01:50:26;100703.13;;;-0.39;100.00
28310;BME280;15571;50.974;13.936;2023-03-03T01:53:31;100696.06;;;-0.43;100.00
28310;BME280;15571;50.974;13.936;2023-03-03T01:56:34;100692.59;;;-0.43;100.00
28310;BME280;15571;50.974;13.936;2023-03-03T01:59:39;100684.84;;;-0.45;100.00
28310;BME280;15571;50.974;13.936;2023-03-03T02:02:43;100682.31;;;-0.43;100.00
28310;BME280;15571;50.974;13.936;2023-03-03T02:05:46;100673.84;;;-0.41;100.00
28310;BME280;15571;50.974;13.936;2023-03-03T02:08:53;100668.94;;;-0.36;100.00
28310;BME280;15571;50.974;13.936;2023-03-03T02:11:59;100671.72;;;-0.32;100.00
28310;BME280;15571;50.974;13.936;2023-03-03T02:15:10;100672.72;;;-0.28;100.00
28310;BME280;15571;50.974;13.936;2023-03-03T02:18:16;100672.00;;;-0.25;100.00
28310;BME280;15571;50.974;13.936;2023-03-03T02:21:20;100670.31;;;-0.25;100.00
28310;BME280;15571;50.974;13.936;2023-03-03T02:24:23;100671.25;;;-0.23;100.00
28310;BME280;15571;50.974;13.936;2023-03-03T02:27:28;100675.66;;;-0.20;100.00
28310;BME280;15571;50.974;13.936;2023-03-03T02:30:35;100669.75;;;-0.18;100.00
28310;BME280;15571;50.974;13.936;2023-03-03T02:33:37;100675.88;;;-0.16;100.00
28310;BME280;15571;50.974;13.936;2023-03-03T02:36:42;100675.06;;;-0.14;100.00
28310;BME280;15571;50.974;13.936;2023-03-03T02:39:44;100670.66;;;-0.17;100.00
28310;BME280;15571;50.974;13.936;2023-03-03T02:42:48;100669.97;;;-0.13;100.00
28310;BME280;15571;50.974;13.936;2023-03-03T02:45:51;100669.75;;;-0.18;100.00
28310;BME280;15571;50.974;13.936;2023-03-03T02:48:58;100662.78;;;-0.20;100.00
28310;BME280;15571;50.974;13.936;2023-03-03T02:52:00;100682.72;;;-0.16;100.00
28310;BME280;15571;50.974;13.936;2023-03-03T02:55:04;100675.88;;;-0.16;100.00
28310;BME280;15571;50.974;13.936;2023-03-03T02:58:07;100671.53;;;-0.17;100.00
28310;BME280;15571;50.974;13.936;2023-03-03T03:01:09;100674.25;;;-0.13;100.00
28310;BME280;15571;50.974;13.936;2023-03-03T03:04:15;100658.13;;;-0.09;100.00
28310;BME280;15571;50.974;13.936;2023-03-03T03:07:21;100672.03;;;-0.06;100.00
28310;BME280;15571;50.974;13.936;2023-03-03T03:10:23;100675.47;;;-0.05;100.00
28310;BME280;15571;50.974;13.936;2023-03-03T03:13:28;100678.84;;;-0.06;100.00
28310;BME280;15571;50.974;13.936;2023-03-03T03:16:32;100686.50;;;-0.08;100.00
28310;BME280;15571;50.974;13.936;2023-03-03T03:19:34;100692.53;;;-0.07;100.00
28310;BME280;15571;50.974;13.936;2023-03-03T03:22:37;100690.50;;;-0.14;100.00
28310;BME280;15571;50.974;13.936;2023-03-03T03:25:39;100693.88;;;-0.16;100.00
28310;BME280;15571;50.974;13.936;2023-03-03T03:28:50;100693.47;;;-0.25;100.00
28310;BME280;15571;50.974;13.936;2023-03-03T03:31:52;100696.63;;;-0.30;100.00
28310;BME280;15571;50.974;13.936;2023-03-03T03:34:54;100700.00;;;-0.32;100.00
28310;BME280;15571;50.974;13.936;2023-03-03T03:37:56;100692.97;;;-0.36;100.00
28310;BME280;15571;50.974;13.936;2023-03-03T03:40:58;100697.69;;;-0.45;100.00
28310;BME280;15571;50.974;13.936;2023-03-03T03:44:02;100698.06;;;-0.55;100.00
28310;BME280;15571;50.974;13.936;2023-03-03T03:47:04;100697.31;;;-0.53;100.00
28310;BME280;15571;50.974;13.936;2023-03-03T03:50:08;100696.53;;;-0.52;100.00
28310;BME280;15571;50.974;13.936;2023-03-03T03:53:10;100690.78;;;-0.46;100.00
28310;BME280;15571;50.974;13.936;2023-03-03T03:56:12;100688.28;;;-0.44;100.00
28310;BME280;15571;50.974;13.936;2023-03-03T03:59:19;100691.66;;;-0.45;100.00
28310;BME280;15571;50.974;13.936;2023-03-03T04:02:21;100697.09;;;-0.57;100.00
28310;BME280;15571;50.974;13.936;2023-03-03T04:05:25;100702.09;;;-0.60;100.00
28310;BME280;15571;50.974;13.936;2023-03-03T04:08:28;100707.19;;;-0.62;100.00
28310;BME280;15571;50.974;13.936;2023-03-03T04:11:30;100713.28;;;-0.60;100.00
28310;BME280;15571;50.974;13.936;2023-03-03T04:14:35;100712.16;;;-0.65;100.00
28310;BME280;15571;50.974;13.936;2023-03-03T04:17:37;100702.78;;;-0.65;100.00
28310;BME280;15571;50.974;13.936;2023-03-03T04:20:39;100709.66;;;-0.64;100.00
28310;BME280;15571;50.974;13.936;2023-03-03T04:23:41;100718.34;;;-0.61;100.00
28310;BME280;15571;50.974;13.936;2023-03-03T04:26:43;100715.41;;;-0.69;100.00
28310;BME280;15571;50.974;13.936;2023-03-03T04:29:47;100711.16;;;-0.69;100.00
28310;BME280;15571;50.974;13.936;2023-03-03T04:32:49;100717.84;;;-0.72;100.00
28310;BME280;15571;50.974;13.936;2023-03-03T04:35:55;100723.63;;;-0.76;100.00
28310;BME280;15571;50.974;13.936;2023-03-03T04:38:57;100735.38;;;-0.82;100.00
28310;BME280;15571;50.974;13.936;2023-03-03T04:41:59;100734.34;;;-0.85;100.00
28310;BME280;15571;50.974;13.936;2023-03-03T04:45:04;100736.81;;;-0.87;100.00
28310;BME280;15571;50.974;13.936;2023-03-03T04:48:07;100730.88;;;-0.86;100.00
28310;BME280;15571;50.974;13.936;2023-03-03T04:51:16;100733.63;;;-0.83;100.00
28310;BME280;15571;50.974;13.936;2023-03-03T04:54:19;100744.19;;;-0.76;100.00
28310;BME280;15571;50.974;13.936;2023-03-03T04:57:21;100743.53;;;-0.72;100.00
28310;BME280;15571;50.974;13.936;2023-03-03T05:00:25;100740.38;;;-0.67;100.00
28310;BME280;15571;50.974;13.936;2023-03-03T05:03:27;100750.09;;;-0.61;100.00
28310;BME280;15571;50.974;13.936;2023-03-03T05:06:33;100744.94;;;-0.61;100.00
28310;BME280;15571;50.974;13.936;2023-03-03T05:09:35;100752.50;;;-0.64;100.00
28310;BME280;15571;50.974;13.936;2023-03-03T05:12:37;100743.03;;;-0.65;100.00
28310;BME280;15571;50.974;13.936;2023-03-03T05:15:40;100737.88;;;-0.65;100.00
28310;BME280;15571;50.974;13.936;2023-03-03T05:18:42;100746.72;;;-0.60;100.00
28310;BME280;15571;50.974;13.936;2023-03-03T05:21:45;100743.56;;;-0.54;100.00
28310;BME280;15571;50.974;13.936;2023-03-03T05:24:47;100752.28;;;-0.51;100.00
28310;BME280;15571;50.974;13.936;2023-03-03T05:27:49;100753.22;;;-0.49;100.00
28310;BME280;15571;50.974;13.936;2023-03-03T05:30:52;100752.13;;;-0.54;100.00
28310;BME280;15571;50.974;13.936;2023-03-03T05:33:54;100741.09;;;-0.51;100.00
28310;BME280;15571;50.974;13.936;2023-03-03T05:36:59;100744.78;;;-0.46;100.00
28310;BME280;15571;50.974;13.936;2023-03-03T05:40:04;100750.16;;;-0.41;100.00
28310;BME280;15571;50.974;13.936;2023-03-03T05:43:09;100749.47;;;-0.37;100.00
28310;BME280;15571;50.974;13.936;2023-03-03T05:46:12;100728.25;;;-0.33;100.00
28310;BME280;15571;50.974;13.936;2023-03-03T05:49:14;100730.97;;;-0.30;100.00
28310;BME280;15571;50.974;13.936;2023-03-03T05:52:20;100751.63;;;-0.28;100.00
28310;BME280;15571;50.974;13.936;2023-03-03T05:55:23;100753.44;;;-0.26;100.00
28310;BME280;15571;50.974;13.936;2023-03-03T05:58:32;100748.28;;;-0.26;100.00
28310;BME280;15571;50.974;13.936;2023-03-03T06:01:36;100752.63;;;-0.25;100.00
28310;BME280;15571;50.974;13.936;2023-03-03T06:04:38;100744.06;;;-0.25;100.00
28310;BME280;15571;50.974;13.936;2023-03-03T06:07:41;100742.34;;;-0.25;100.00
28310;BME280;15571;50.974;13.936;2023-03-03T06:10:44;100739.94;;;-0.22;100.00
28310;BME280;15571;50.974;13.936;2023-03-03T06:13:50;100743.47;;;-0.20;100.00
28310;BME280;15571;50.974;13.936;2023-03-03T06:16:54;100740.03;;;-0.19;100.00
28310;BME280;15571;50.974;13.936;2023-03-03T06:19:57;100744.38;;;-0.18;100.00
28310;BME280;15571;50.974;13.936;2023-03-03T06:22:59;100741.91;;;-0.16;100.00
28310;BME280;15571;50.974;13.936;2023-03-03T06:26:01;100738.44;;;-0.17;100.00
28310;BME280;15571;50.974;13.936;2023-03-03T06:29:05;100741.81;;;-0.18;100.00
28310;BME280;15571;50.974;13.936;2023-03-03T06:32:09;100749.69;;;-0.14;100.00
28310;BME280;15571;50.974;13.936;2023-03-03T06:35:12;100745.34;;;-0.16;100.00
28310;BME280;15571;50.974;13.936;2023-03-03T06:38:17;100746.84;;;-0.21;100.00
28310;BME280;15571;50.974;13.936;2023-03-03T06:41:19;100743.47;;;-0.20;100.00
28310;BME280;15571;50.974;13.936;2023-03-03T06:44:24;100763.13;;;-0.20;100.00
28310;BME280;15571;50.974;13.936;2023-03-03T06:47:27;100769.03;;;-0.23;100.00
28310;BME280;15571;50.974;13.936;2023-03-03T06:50:29;100774.03;;;-0.26;100.00
28310;BME280;15571;50.974;13.936;2023-03-03T06:53:31;100766.84;;;-0.33;100.00
28310;BME280;15571;50.974;13.936;2023-03-03T06:56:34;100767.69;;;-0.33;100.00
28310;BME280;15571;50.974;13.936;2023-03-03T06:59:37;100763.31;;;-0.35;100.00
28310;BME280;15571;50.974;13.936;2023-03-03T07:02:42;100776.22;;;-0.34;100.00
28310;BME280;15571;50.974;13.936;2023-03-03T07:05:44;100779.63;;;-0.35;100.00
28310;BME280;15571;50.974;13.936;2023-03-03T07:08:46;100784.47;;;-0.41;100.00
28310;BME280;15571;50.974;13.936;2023-03-03T07:11:51;100791.00;;;-0.48;100.00
28310;BME280;15571;50.974;13.936;2023-03-03T07:14:54;100794.53;;;-0.45;100.00
28310;BME280;15571;50.974;13.936;2023-03-03T07:18:00;100792.94;;;-0.43;100.00
28310;BME280;15571;50.974;13.936;2023-03-03T07:21:05;100792.34;;;-0.38;100.00
28310;BME280;15571;50.974;13.936;2023-03-03T07:24:23;100784.03;;;-0.32;100.00
28310;BME280;15571;50.974;13.936;2023-03-03T07:27:26;100796.22;;;-0.28;100.00
28310;BME280;15571;50.974;13.936;2023-03-03T07:30:29;100791.28;;;-0.23;100.00
28310;BME280;15571;50.974;13.936;2023-03-03T07:33:33;100783.72;;;-0.20;100.00
28310;BME280;15571;50.974;13.936;2023-03-03T07:36:36;100789.91;;;-0.17;100.00
28310;BME280;15571;50.974;13.936;2023-03-03T07:39:38;100800.19;;;-0.17;100.00
28310;BME280;15571;50.974;13.936;2023-03-03T07:42:41;100806.94;;;-0.19;100.00
28310;BME280;15571;50.974;13.936;2023-03-03T07:46:25;100810.94;;;-0.25;100.00
28310;BME280;15571;50.974;13.936;2023-03-03T07:49:31;100820.34;;;-0.26;100.00
28310;BME280;15571;50.974;13.936;2023-03-03T07:52:37;100815.78;;;-0.32;100.00
28310;BME280;15571;50.974;13.936;2023-03-03T07:55:43;100820.94;;;-0.32;100.00
28310;BME280;15571;50.974;13.936;2023-03-03T07:58:45;100817.59;;;-0.29;100.00
28310;BME280;15571;50.974;13.936;2023-03-03T08:01:50;100809.88;;;-0.29;100.00
28310;BME280;15571;50.974;13.936;2023-03-03T08:04:53;100810.03;;;-0.26;100.00
28310;BME280;15571;50.974;13.936;2023-03-03T08:07:57;100812.63;;;-0.26;100.00
28310;BME280;15571;50.974;13.936;2023-03-03T08:11:03;100822.09;;;-0.25;100.00
28310;BME280;15571;50.974;13.936;2023-03-03T08:14:10;100816.81;;;-0.28;100.00
28310;BME280;15571;50.974;13.936;2023-03-03T08:17:16;100821.16;;;-0.27;100.00
28310;BME280;15571;50.974;13.936;2023-03-03T08:23:43;100815.13;;;-0.27;100.00
28310;BME280;15571;50.974;13.936;2023-03-03T08:26:45;100811.66;;;-0.28;100.00
28310;BME280;15571;50.974;13.936;2023-03-03T08:29:47;100809.88;;;-0.29;100.00
28310;BME280;15571;50.974;13.936;2023-03-03T08:32:49;100804.91;;;-0.26;100.00
28310;BME280;15571;50.974;13.936;2023-03-03T08:35:54;100805.22;;;-0.20;100.00
28310;BME280;15571;50.974;13.936;2023-03-03T08:38:57;100811.28;;;-0.18;100.00
28310;BME280;15571;50.974;13.936;2023-03-03T08:42:02;100810.63;;;-0.13;100.00
28310;BME280;15571;50.974;13.936;2023-03-03T08:45:04;100827.09;;;-0.10;100.00
28310;BME280;15571;50.974;13.936;2023-03-03T08:48:07;100825.19;;;-0.14;100.00
28310;BME280;15571;50.974;13.936;2023-03-03T08:51:09;100828.38;;;-0.20;100.00
28310;BME280;15571;50.974;13.936;2023-03-03T08:54:15;100826.44;;;-0.24;100.00
28310;BME280;15571;50.974;13.936;2023-03-03T08:57:17;100823.88;;;-0.24;100.00
28310;BME280;15571;50.974;13.936;2023-03-03T09:00:19;100827.41;;;-0.22;100.00
28310;BME280;15571;50.974;13.936;2023-03-03T09:03:23;100824.03;;;-0.21;100.00
28310;BME280;15571;50.974;13.936;2023-03-03T09:06:25;100820.94;;;-0.13;100.00
28310;BME280;15571;50.974;13.936;2023-03-03T09:09:29;100825.13;;;-0.16;100.00
28310;BME280;15571;50.974;13.936;2023-03-03T09:12:38;100831.28;;;-0.12;100.00
28310;BME280;15571;50.974;13.936;2023-03-03T09:15:47;100837.91;;;-0.17;100.00
28310;BME280;15571;50.974;13.936;2023-03-03T09:18:49;100836.22;;;-0.17;100.00
28310;BME280;15571;50.974;13.936;2023-03-03T09:21:52;100831.97;;;-0.16;100.00
28310;BME280;15571;50.974;13.936;2023-03-03T09:24:57;100835.56;;;-0.12;100.00
28310;BME280;15571;50.974;13.936;2023-03-03T09:28:00;100839.09;;;-0.10;100.00
28310;BME280;15571;50.974;13.936;2023-03-03T09:31:02;100846.94;;;-0.07;100.00
28310;BME280;15571;50.974;13.936;2023-03-03T09:34:15;100841.69;;;-0.10;100.00
28310;BME280;15571;50.974;13.936;2023-03-03T09:37:20;100849.41;;;-0.10;100.00
28310;BME280;15571;50.974;13.936;2023-03-03T09:40:30;100849.69;;;-0.04;100.00
28310;BME280;15571;50.974;13.936;2023-03-03T09:43:40;100853.13;;;-0.04;100.00
28310;BME280;15571;50.974;13.936;2023-03-03T09:46:48;100853.28;;;-0.01;100.00
28310;BME280;15571;50.974;13.936;2023-03-03T09:49:58;100877.34;;;0.00;100.00
28310;BME280;15571;50.974;13.936;2023-03-03T09:53:16;100873.00;;;-0.01;100.00
28310;BME280;15571;50.974;13.936;2023-03-03T09:56:24;100879.59;;;-0.06;100.00
28310;BME280;15571;50.974;13.936;2023-03-03T09:59:32;100877.56;;;-0.13;100.00
28310;BME280;15571;50.974;13.936;2023-03-03T10:02:45;100870.78;;;-0.11;100.00
28310;BME280;15571;50.974;13.936;2023-03-03T10:05:54;100866.66;;;-0.08;100.00
28310;BME280;15571;50.974;13.936;2023-03-03T10:09:07;100877.84;;;-0.07;100.00
28310;BME280;15571;50.974;13.936;2023-03-03T10:12:13;100870.84;;;-0.10;100.00
28310;BME280;15571;50.974;13.936;2023-03-03T10:15:20;100871.06;;;-0.05;100.00
28310;BME280;15571;50.974;13.936;2023-03-03T10:18:28;100874.63;;;-0.03;100.00
28310;BME280;15571;50.974;13.936;2023-03-03T10:21:35;100879.91;;;0.00;100.00
28310;BME280;15571;50.974;13.936;2023-03-03T10:24:39;100880.84;;;0.02;100.00
28310;BME280;15571;50.974;13.936;2023-03-03T10:27:53;100885.88;;;-0.01;100.00
28310;BME280;15571;50.974;13.936;2023-03-03T10:31:00;100881.66;;;0.01;100.00
28310;BME280;15571;50.974;13.936;2023-03-03T10:34:11;100884.09;;;-0.02;100.00
28310;BME280;15571;50.974;13.936;2023-03-03T10:37:17;100879.44;;;-0.09;100.00
28310;BME280;15571;50.974;13.936;2023-03-03T10:40:23;100882.91;;;-0.09;100.00
28310;BME280;15571;50.974;13.936;2023-03-03T10:43:34;100877.84;;;-0.07;100.00
28310;BME280;15571;50.974;13.936;2023-03-03T10:46:47;100872.69;;;-0.07;100.00
28310;BME280;15571;50.974;13.936;2023-03-03T10:49:55;100878.97;;;-0.02;100.00
28310;BME280;15571;50.974;13.936;2023-03-03T10:53:10;100875.06;;;0.06;100.00
28310;BME280;15571;50.974;13.936;2023-03-03T10:56:21;100882.03;;;0.09;100.00
28310;BME280;15571;50.974;13.936;2023-03-03T10:59:35;100875.47;;;0.15;100.00
28310;BME280;15571;50.974;13.936;2023-03-03T11:02:42;100878.88;;;0.14;100.00
28310;BME280;15571;50.974;13.936;2023-03-03T11:05:50;100879.19;;;0.03;100.00
28310;BME280;15571;50.974;13.936;2023-03-03T11:08:56;100878.44;;;0.05;100.00
28310;BME280;15571;50.974;13.936;2023-03-03T11:12:04;100875.63;;;0.01;100.00
28310;BME280;15571;50.974;13.936;2023-03-03T11:15:16;100876.50;;;0.01;100.00
28310;BME280;15571;50.974;13.936;2023-03-03T11:18:25;100873.13;;;0.02;100.00
28310;BME280;15571;50.974;13.936;2023-03-03T11:21:33;100873.44;;;0.08;100.00
28310;BME280;15571;50.974;13.936;2023-03-03T11:24:46;100874.47;;;0.12;100.00
28310;BME280;15571;50.974;13.936;2023-03-03T11:31:17;100866.00;;;0.14;100.00
28310;BME280;15571;50.974;13.936;2023-03-03T11:34:29;100864.28;;;0.15;100.00
28310;BME280;15571;50.974;13.936;2023-03-03T11:37:39;100858.41;;;0.18;100.00
28310;BME280;15571;50.974;13.936;2023-03-03T11:40:50;100857.63;;;0.19;100.00
28310;BME280;15571;50.974;13.936;2023-03-03T11:43:53;100852.53;;;0.20;100.00
28310;BME280;15571;50.974;13.936;2023-03-03T11:46:58;100857.25;;;0.29;100.00
28310;BME280;15571;50.974;13.936;2023-03-03T11:50:03;100854.72;;;0.30;100.00
28310;BME280;15571;50.974;13.936;2023-03-03T11:53:11;100847.88;;;0.31;100.00
28310;BME280;15571;50.974;13.936;2023-03-03T11:56:26;100853.31;;;0.37;100.00
28310;BME280;15571;50.974;13.936;2023-03-03T11:59:40;100856.09;;;0.42;100.00
28310;BME280;15571;50.974;13.936;2023-03-03T12:02:51;100849.19;;;0.41;100.00
28310;BME280;15571;50.974;13.936;2023-03-03T12:05:59;100847.91;;;0.51;100.00
28310;BME280;15571;50.974;13.936;2023-03-03T12:09:12;100850.63;;;0.54;100.00
28310;BME280;15571;50.974;13.936;2023-03-03T12:12:19;100846.13;;;0.50;100.00
28310;BME280;15571;50.974;13.936;2023-03-03T12:15:26;100846.13;;;0.50;100.00
28310;BME280;15571;50.974;13.936;2023-03-03T12:18:34;100844.09;;;0.42;100.00
28310;BME280;15571;50.974;13.936;2023-03-03T12:21:49;100838.06;;;0.42;100.00
28310;BME280;15571;50.974;13.936;2023-03-03T12:24:57;100835.81;;;0.50;100.00
28310;BME280;15571;50.974;13.936;2023-03-03T12:28:03;100835.81;;;0.50;100.00
28310;BME280;15571;50.974;13.936;2023-03-03T12:31:13;100829.19;;;0.55;100.00
28310;BME280;15571;50.974;13.936;2023-03-03T12:34:23;100825.81;;;0.56;100.00
28310;BME280;15571;50.974;13.936;2023-03-03T12:37:35;100829.34;;;0.58;100.00
28310;BME280;15571;50.974;13.936;2023-03-03T12:40:43;100825.13;;;0.60;100.00
28310;BME280;15571;50.974;13.936;2023-03-03T12:43:50;100822.94;;;0.69;100.00
28310;BME280;15571;50.974;13.936;2023-03-03T12:46:56;100815.22;;;0.69;100.00
28310;BME280;15571;50.974;13.936;2023-03-03T12:50:20;100812.19;;;0.78;100.00
28310;BME280;15571;50.974;13.936;2023-03-03T12:53:33;100810.34;;;0.75;100.00
28310;BME280;15571;50.974;13.936;2023-03-03T12:56:44;100808.03;;;0.82;100.00
28310;BME280;15571;50.974;13.936;2023-03-03T12:59:53;100804.69;;;0.84;100.00
28310;BME280;15571;50.974;13.936;2023-03-03T13:03:03;100803.84;;;0.84;100.00
28310;BME280;15571;50.974;13.936;2023-03-03T13:06:14;100802.25;;;0.87;100.00
28310;BME280;15571;50.974;13.936;2023-03-03T13:09:32;100793.88;;;0.91;100.00
28310;BME280;15571;50.974;13.936;2023-03-03T13:12:38;100803.16;;;0.88;100.00
28310;BME280;15571;50.974;13.936;2023-03-03T13:15:46;100795.50;;;0.89;100.00
28310;BME280;15571;50.974;13.936;2023-03-03T13:18:52;100806.41;;;0.84;100.00
28310;BME280;15571;50.974;13.936;2023-03-03T13:21:58;100801.09;;;0.81;100.00
28310;BME280;15571;50.974;13.936;2023-03-03T13:25:02;100797.72;;;0.82;100.00
28310;BME280;15571;50.974;13.936;2023-03-03T13:28:16;100803.16;;;0.88;100.00
28310;BME280;15571;50.974;13.936;2023-03-03T13:31:20;100796.97;;;0.84;100.00
28310;BME280;15571;50.974;13.936;2023-03-03T13:34:35;100795.00;;;0.78;100.00
28310;BME280;15571;50.974;13.936;2023-03-03T13:37:45;100799.28;;;0.78;100.00
28310;BME280;15571;50.974;13.936;2023-03-03T13:40:49;100784.94;;;0.83;100.00
28310;BME280;15571;50.974;13.936;2023-03-03T13:43:52;100787.81;;;0.91;100.00
28310;BME280;15571;50.974;13.936;2023-03-03T13:47:03;100787.19;;;0.97;100.00
28310;BME280;15571;50.974;13.936;2023-03-03T13:53:38;100789.16;;;1.02;100.00
28310;BME280;15571;50.974;13.936;2023-03-03T13:56:48;100788.09;;;0.97;100.00
28310;BME280;15571;50.974;13.936;2023-03-03T13:59:54;100772.72;;;1.00;100.00
28310;BME280;15571;50.974;13.936;2023-03-03T14:03:20;100774.63;;;1.04;100.00
28310;BME280;15571;50.974;13.936;2023-03-03T14:06:28;100777.53;;;1.12;100.00
28310;BME280;15571;50.974;13.936;2023-03-03T14:09:37;100772.56;;;1.17;100.00
28310;BME280;15571;50.974;13.936;2023-03-03T14:12:46;100768.47;;;1.22;100.00
28310;BME280;15571;50.974;13.936;2023-03-03T14:15:55;100759.91;;;1.23;100.00
28310;BME280;15571;50.974;13.936;2023-03-03T14:19:00;100766.09;;;1.27;100.00
28310;BME280;15571;50.974;13.936;2023-03-03T14:22:05;100761.88;;;1.29;100.00
28310;BME280;15571;50.974;13.936;2023-03-03T14:25:10;100751.50;;;1.27;100.00
28310;BME280;15571;50.974;13.936;2023-03-03T14:28:13;100751.59;;;1.30;100.00
28310;BME280;15571;50.974;13.936;2023-03-03T14:31:19;100744.69;;;1.29;100.00
28310;BME280;15571;50.974;13.936;2023-03-03T14:34:29;100748.94;;;1.27;100.00
28310;BME280;15571;50.974;13.936;2023-03-03T14:37:41;100749.59;;;1.23;100.00
28310;BME280;15571;50.974;13.936;2023-03-03T14:40:45;100752.38;;;1.28;100.00
28310;BME280;15571;50.974;13.936;2023-03-03T14:43:58;100741.91;;;1.24;100.00
28310;BME280;15571;50.974;13.936;2023-03-03T14:47:02;100740.44;;;1.30;100.00
28310;BME280;15571;50.974;13.936;2023-03-03T14:50:10;100742.25;;;1.32;100.00
28310;BME280;15571;50.974;13.936;2023-03-03T14:53:32;100739.66;;;1.32;100.00
28310;BME280;15571;50.974;13.936;2023-03-03T14:56:36;100739.66;;;1.32;100.00
28310;BME280;15571;50.974;13.936;2023-03-03T14:59:54;100741.38;;;1.32;100.00
28310;BME280;15571;50.974;13.936;2023-03-03T15:03:04;100741.56;;;1.36;100.00
28310;BME280;15571;50.974;13.936;2023-03-03T15:06:28;100731.41;;;1.41;100.00
28310;BME280;15571;50.974;13.936;2023-03-03T15:09:31;100731.53;;;1.44;100.00
28310;BME280;15571;50.974;13.936;2023-03-03T15:12:40;100732.41;;;1.45;100.00
28310;BME280;15571;50.974;13.936;2023-03-03T15:15:47;100728.94;;;1.44;100.00
28310;BME280;15571;50.974;13.936;2023-03-03T15:22:15;100735.50;;;1.36;100.00
28310;BME280;15571;50.974;13.936;2023-03-03T15:25:21;100727.91;;;1.39;100.00
28310;BME280;15571;50.974;13.936;2023-03-03T15:28:31;100740.84;;;1.40;100.00
28310;BME280;15571;50.974;13.936;2023-03-03T15:31:39;100735.63;;;1.39;100.00
28310;BME280;15571;50.974;13.936;2023-03-03T15:34:43;100723.69;;;1.41;100.00
28310;BME280;15571;50.974;13.936;2023-03-03T15:37:48;100728.72;;;1.38;100.00
28310;BME280;15571;50.974;13.936;2023-03-03T15:40:57;100732.72;;;1.31;100.00
28310;BME280;15571;50.974;13.936;2023-03-03T15:44:12;100730.88;;;1.27;100.00
28310;BME280;15571;50.974;13.936;2023-03-03T15:50:42;100731.41;;;1.20;100.00
28310;BME280;15571;50.974;13.936;2023-03-03T15:53:55;100727.25;;;1.23;100.00
28310;BME280;15571;50.974;13.936;2023-03-03T15:57:00;100728.59;;;1.14;100.00
28310;BME280;15571;50.974;13.936;2023-03-03T16:00:24;100729.38;;;1.11;100.00
28310;BME280;15571;50.974;13.936;2023-03-03T16:03:34;100737.97;;;1.12;100.00
28310;BME280;15571;50.974;13.936;2023-03-03T16:06:42;100735.38;;;1.12;100.00